Time;durP1;ratioP1;P1;durP2;ratioP2;P2;SDS_P1;SDS_P2;PMS_P1;PMS_P2;Temp;Humidity;BMP_temperature;BMP_pressure;BME280_temperature;BME280_humidity;BME280_pressure;Samples;Min_cycle;Max_cycle;Signal;HPM_P1;HPM_P2
2024/01/28 00:00:45;;;;;;;258.00;111.10;;;;;;;;;;4990150;28;20650;-61
2024/01/28 00:03:12;;;;;;;270.60;114.27;;;;;;;;;;4993682;28;20212;-61
2024/01/28 00:05:38;;;;;;;335.97;132.77;;;;;;;;;;4994328;28;20220;-62
2024/01/28 00:08:04;;;;;;;289.10;126.53;;;3.30;99.90;;;;;;4997138;28;20305;-61
2024/01/28 00:10:30;;;;;;;310.83;126.67;;;;;;;;;;4987341;28;20652;-61
2024/01/28 00:12:56;;;;;;;303.83;122.57;;;;;;;;;;4990073;28;20231;-62
2024/01/28 00:15:22;;;;;;;298.90;126.37;;;;;;;;;;4987406;28;20818;-61
2024/01/28 00:17:48;;;;;;;270.50;117.53;;;;;;;;;;4993669;28;20199;-62
2024/01/28 00:20:14;;;;;;;251.37;109.17;;;;;;;;;;4990972;28;20666;-62
2024/01/28 00:22:40;;;;;;;321.93;132.33;;;;;;;;;;4992142;28;20489;-61
2024/01/28 00:25:06;;;;;;;307.13;126.50;;;;;;;;;;4990517;28;20308;-61
2024/01/28 00:27:32;;;;;;;311.57;124.77;;;;;;;;;;4981928;28;20362;-62
2024/01/28 00:29:58;;;;;;;269.77;113.67;;;;;;;;;;4994373;28;20197;-61
2024/01/28 00:32:24;;;;;;;260.50;111.43;;;;;;;;;;4992856;28;20636;-61
2024/01/28 00:34:50;;;;;;;320.60;132.70;;;;;;;;;;4989818;28;20208;-62
2024/01/28 00:37:16;;;;;;;331.63;137.63;;;;;;;;;;4988297;28;20203;-61
2024/01/28 00:39:42;;;;;;;345.27;137.93;;;;;;;;;;4989452;28;20188;-62
2024/01/28 00:42:08;;;;;;;251.87;112.47;;;;;;;;;;4998264;28;20196;-61
2024/01/28 00:44:34;;;;;;;346.80;140.87;;;;;;;;;;4988913;28;20547;-62
2024/01/28 00:47:00;;;;;;;300.33;123.23;;;;;;;;;;4990284;28;20189;-61
2024/01/28 00:49:29;;;;;;;317.47;129.03;;;;;;;;;;4988620;28;20197;-61
2024/01/28 00:51:58;;;;;;;250.83;111.53;;;;;;;;;;4991526;28;20186;-61
2024/01/28 00:54:24;;;;;;;342.13;140.17;;;;;;;;;;4992446;28;20181;-62
2024/01/28 00:56:52;;;;;;;261.23;110.53;;;;;;;;;;4988427;28;20189;-61
2024/01/28 00:59:18;;;;;;;289.73;118.23;;;3.00;99.90;;;;;;4985953;28;20575;-61
2024/01/28 01:01:44;;;;;;;301.07;119.70;;;;;;;;;;4995200;28;20182;-61
2024/01/28 01:04:11;;;;;;;296.77;119.83;;;;;;;;;;4994502;28;20986;-61
2024/01/28 01:06:40;;;;;;;319.67;125.90;;;;;;;;;;4990244;28;20211;-61
2024/01/28 01:09:09;;;;;;;263.27;113.13;;;;;;;;;;4999048;28;20196;-61
2024/01/28 01:11:35;;;;;;;318.97;129.20;;;;;;;;;;4999814;28;20235;-61
2024/01/28 01:14:01;;;;;;;266.20;111.33;;;;;;;;;;4985659;28;20564;-62
2024/01/28 01:16:27;;;;;;;306.43;121.17;;;2.70;99.90;;;;;;4993909;28;20236;-61
2024/01/28 01:18:53;;;;;;;306.10;121.07;;;;;;;;;;4995229;28;20599;-61
2024/01/28 01:21:19;;;;;;;324.50;127.27;;;;;;;;;;4990859;28;20516;-62
2024/01/28 01:23:45;;;;;;;348.03;139.77;;;;;;;;;;4987819;28;20220;-61
2024/01/28 01:26:11;;;;;;;277.83;117.13;;;;;;;;;;4991940;28;20710;-61
2024/01/28 01:28:37;;;;;;;296.13;124.47;;;;;;;;;;4990414;28;20235;-62
2024/01/28 01:31:03;;;;;;;283.70;112.97;;;;;;;;;;4994888;28;20276;-61
2024/01/28 01:33:29;;;;;;;247.53;105.70;;;;;;;;;;4999007;28;20192;-61
2024/01/28 01:35:55;;;;;;;355.50;146.87;;;;;;;;;;4991106;28;20583;-62
2024/01/28 01:38:21;;;;;;;288.57;111.33;;;;;;;;;;4995691;28;20624;-62
2024/01/28 01:40:47;;;;;;;343.13;136.03;;;;;;;;;;4990350;28;20247;-61
2024/01/28 01:43:15;;;;;;;267.60;110.93;;;;;;;;;;4994495;28;20217;-61
2024/01/28 01:45:41;;;;;;;261.40;108.50;;;;;;;;;;4995252;28;20215;-61
2024/01/28 01:48:10;;;;;;;265.93;116.30;;;;;;;;;;4995534;28;20636;-61
2024/01/28 01:50:36;;;;;;;229.30;99.93;;;;;;;;;;4984997;28;20185;-61
2024/01/28 01:53:04;;;;;;;262.07;108.43;;;;;;;;;;4996076;28;20193;-62
2024/01/28 01:55:30;;;;;;;281.23;114.23;;;;;;;;;;4991878;28;20214;-62
2024/01/28 01:57:56;;;;;;;293.80;116.27;;;;;;;;;;4992334;28;20188;-61
2024/01/28 02:00:22;;;;;;;317.57;125.03;;;;;;;;;;4991111;28;20195;-61
2024/01/28 02:02:48;;;;;;;325.60;132.00;;;;;;;;;;4984340;28;20205;-61
2024/01/28 02:05:14;;;;;;;262.60;112.73;;;;;;;;;;4993948;28;20219;-61
2024/01/28 02:07:40;;;;;;;268.93;110.10;;;;;;;;;;4995618;28;20181;-61
2024/01/28 02:10:06;;;;;;;261.23;106.67;;;;;;;;;;4988502;28;20195;-61
2024/01/28 02:12:33;;;;;;;255.60;106.20;;;;;;;;;;4992416;28;20212;-61
2024/01/28 02:15:04;;;;;;;287.00;115.23;;;2.60;99.90;;;;;;4993121;28;20729;-61
2024/01/28 02:17:30;;;;;;;277.27;112.20;;;;;;;;;;4995533;28;20701;-61
2024/01/28 02:19:56;;;;;;;271.40;116.20;;;;;;;;;;4984345;28;20189;-61
2024/01/28 02:22:21;;;;;;;234.13;103.33;;;;;;;;;;4989459;28;20336;-61
2024/01/28 02:24:48;;;;;;;244.50;109.20;;;;;;;;;;5023864;22;20322;-57
2024/01/28 02:27:14;;;;;;;282.93;108.40;;;;;;;;;;4999041;28;20347;-58
2024/01/28 02:29:40;;;;;;;265.63;103.57;;;;;;;;;;4999565;28;20256;-57
2024/01/28 02:32:06;;;;;;;257.40;99.67;;;;;;;;;;4995253;28;20183;-58
2024/01/28 02:34:31;;;;;;;260.97;97.73;;;;;;;;;;4999048;28;20606;-58
2024/01/28 02:36:57;;;;;;;299.40;112.90;;;;;;;;;;5003223;28;20208;-57
2024/01/28 02:39:23;;;;;;;267.10;101.83;;;;;;;;;;5000987;28;20185;-58
2024/01/28 02:41:49;;;;;;;286.23;113.33;;;;;;;;;;5003340;28;20177;-57
2024/01/28 02:44:15;;;;;;;209.97;87.43;;;;;;;;;;5000688;28;20223;-57
2024/01/28 02:46:41;;;;;;;274.23;104.03;;;;;;;;;;4999630;28;20496;-57
2024/01/28 02:49:07;;;;;;;233.27;91.47;;;;;;;;;;4984623;28;20196;-57
2024/01/28 02:51:33;;;;;;;280.43;103.20;;;;;;;;;;5001423;28;20177;-57
2024/01/28 02:53:59;;;;;;;261.27;99.63;;;;;;;;;;5001418;28;20655;-58
2024/01/28 02:56:25;;;;;;;304.50;117.80;;;;;;;;;;5002468;28;20251;-57
2024/01/28 02:58:51;;;;;;;291.37;113.77;;;;;;;;;;5001007;28;20208;-58
2024/01/28 03:01:17;;;;;;;232.43;94.37;;;;;;;;;;5000218;28;20196;-58
2024/01/28 03:03:43;;;;;;;273.40;105.17;;;;;;;;;;4999283;28;20512;-58
2024/01/28 03:06:10;;;;;;;266.73;104.43;;;;;;;;;;5001984;28;20200;-57
2024/01/28 03:08:36;;;;;;;283.50;102.70;;;;;;;;;;4999096;28;20666;-57
2024/01/28 03:11:02;;;;;;;253.17;96.03;;;;;;;;;;4981228;28;20185;-59
2024/01/28 03:13:28;;;;;;;262.83;95.30;;;;;;;;;;5003342;28;20217;-59
2024/01/28 03:15:55;;;;;;;248.87;98.40;;;2.20;99.90;;;;;;4997790;28;20212;-59
2024/01/28 03:18:21;;;;;;;241.03;93.73;;;;;;;;;;4980456;28;20204;-60
2024/01/28 03:20:47;;;;;;;294.43;108.70;;;;;;;;;;4993345;28;20658;-61
2024/01/28 03:23:14;;;;;;;253.73;97.50;;;;;;;;;;4998663;28;20204;-60
2024/01/28 03:25:40;;;;;;;288.50;111.03;;;;;;;;;;5000174;28;20204;-60
2024/01/28 03:28:06;;;;;;;355.13;130.30;;;;;;;;;;4995470;28;20598;-61
2024/01/28 03:30:32;;;;;;;246.77;93.37;;;;;;;;;;4999920;28;20191;-60
2024/01/28 03:32:58;;;;;;;295.57;111.53;;;;;;;;;;4996559;28;20223;-60
2024/01/28 03:35:24;;;;;;;323.87;112.50;;;;;;;;;;4998387;28;20224;-60
2024/01/28 03:37:50;;;;;;;304.70;107.67;;;;;;;;;;5000628;28;20231;-60
2024/01/28 03:40:17;;;;;;;210.27;85.67;;;;;;;;;;5001291;28;20528;-60
2024/01/28 03:42:43;;;;;;;235.70;92.67;;;;;;;;;;5001569;28;20624;-57
2024/01/28 03:45:09;;;;;;;357.00;131.50;;;;;;;;;;4995236;28;20418;-57
2024/01/28 03:47:36;;;;;;;249.67;94.70;;;;;;;;;;4983877;28;20254;-60
2024/01/28 03:50:02;;;;;;;291.73;106.03;;;;;;;;;;4996558;28;21150;-59
2024/01/28 03:52:28;;;;;;;253.93;94.17;;;;;;;;;;4985320;28;20199;-60
2024/01/28 03:54:54;;;;;;;258.60;103.90;;;;;;;;;;4998840;28;20189;-60
2024/01/28 03:57:20;;;;;;;226.27;89.07;;;;;;;;;;4999530;28;20188;-60
2024/01/28 03:59:46;;;;;;;277.93;105.17;;;;;;;;;;5001525;28;20569;-60
2024/01/28 04:02:14;;;;;;;292.83;112.00;;;;;;;;;;4997197;28;20608;-60
2024/01/28 04:04:40;;;;;;;295.73;110.97;;;;;;;;;;4997951;28;20435;-61
2024/01/28 04:07:06;;;;;;;291.07;110.23;;;;;;;;;;4983495;28;20287;-59
2024/01/28 04:09:33;;;;;;;303.70;114.00;;;;;;;;;;5002653;28;20177;-58
2024/01/28 04:11:59;;;;;;;310.03;117.77;;;;;;;;;;4997245;28;20191;-58
2024/01/28 04:14:25;;;;;;;298.03;110.30;;;;;;;;;;5000055;28;20188;-57
2024/01/28 04:16:51;;;;;;;287.07;112.73;;;;;;;;;;4996071;28;20220;-59
2024/01/28 04:19:17;;;;;;;285.70;107.07;;;;;;;;;;5003224;28;20197;-59
2024/01/28 04:21:43;;;;;;;292.37;110.97;;;;;;;;;;4999349;28;20200;-59
2024/01/28 04:24:09;;;;;;;270.70;101.07;;;;;;;;;;4980249;28;20216;-57
2024/01/28 04:26:34;;;;;;;298.70;110.23;;;1.40;99.90;;;;;;5003786;28;20212;-59
2024/01/28 04:29:00;;;;;;;270.07;105.73;;;;;;;;;;5002535;28;20193;-59
2024/01/28 04:31:26;;;;;;;359.63;131.00;;;;;;;;;;4998044;28;20246;-58
2024/01/28 04:33:54;;;;;;;304.70;114.87;;;;;;;;;;5006718;28;20276;-59
2024/01/28 04:36:20;;;;;;;442.90;167.17;;;;;;;;;;4999028;28;20201;-58
2024/01/28 04:38:46;;;;;;;217.63;88.17;;;;;;;;;;4998393;28;20264;-58
2024/01/28 04:41:12;;;;;;;288.77;106.73;;;;;;;;;;5004957;28;20516;-59
2024/01/28 04:43:38;;;;;;;288.47;104.57;;;;;;;;;;5006108;28;20207;-58
2024/01/28 04:46:04;;;;;;;304.10;115.00;;;;;;;;;;5003665;28;20201;-59
2024/01/28 04:48:30;;;;;;;289.20;107.90;;;;;;;;;;5003129;28;20191;-59
2024/01/28 04:50:56;;;;;;;294.20;116.47;;;;;;;;;;5000698;28;20532;-59
2024/01/28 04:53:22;;;;;;;267.47;104.43;;;;;;;;;;5003170;28;20561;-59
2024/01/28 04:55:48;;;;;;;294.50;106.20;;;;;;;;;;5005271;28;20248;-59
2024/01/28 04:58:14;;;;;;;297.80;111.13;;;;;;;;;;5002502;28;20233;-59
2024/01/28 05:00:40;;;;;;;308.93;114.00;;;;;;;;;;4983899;28;20189;-59
2024/01/28 05:03:06;;;;;;;315.67;109.17;;;;;;;;;;5000801;28;20212;-58
2024/01/28 05:05:32;;;;;;;288.93;102.97;;;;;;;;;;5003421;28;20261;-59
2024/01/28 05:07:59;;;;;;;323.80;116.30;;;;;;;;;;5001904;28;20547;-58
2024/01/28 05:10:25;;;;;;;304.83;110.13;;;;;;;;;;4999689;28;21456;-58
2024/01/28 05:12:51;;;;;;;280.13;106.30;;;;;;;;;;4999051;28;20181;-59
2024/01/28 05:15:17;;;;;;;299.43;112.87;;;;;;;;;;5004988;28;20521;-59
2024/01/28 05:17:44;;;;;;;241.87;94.80;;;;;;;;;;5005128;28;20188;-58
2024/01/28 05:20:11;;;;;;;323.87;120.00;;;;;;;;;;5001082;28;20189;-58
2024/01/28 05:22:37;;;;;;;301.27;115.33;;;;;;;;;;4997459;28;20541;-59
2024/01/28 05:25:03;;;;;;;339.03;128.73;;;;;;;;;;5003712;28;20212;-59
2024/01/28 05:27:29;;;;;;;346.60;126.83;;;;;;;;;;5002173;28;20177;-59
2024/01/28 05:29:58;;;;;;;313.97;117.37;;;;;;;;;;4997342;28;20543;-59
2024/01/28 05:32:24;;;;;;;266.60;104.17;;;;;;;;;;4998272;28;20169;-59
2024/01/28 05:34:50;;;;;;;271.33;105.87;;;;;;;;;;5005313;28;20679;-59
2024/01/28 05:37:16;;;;;;;338.70;125.97;;;;;;;;;;5002577;28;20177;-58
2024/01/28 05:39:42;;;;;;;331.53;124.33;;;;;;;;;;4999870;28;20184;-59
2024/01/28 05:42:08;;;;;;;330.50;118.10;;;;;;;;;;5003385;28;20924;-59
2024/01/28 05:44:34;;;;;;;355.73;130.73;;;;;;;;;;4996730;28;20177;-59
2024/01/28 05:47:00;;;;;;;325.80;124.53;;;;;;;;;;4999012;28;20212;-59
2024/01/28 05:49:26;;;;;;;288.97;109.90;;;;;;;;;;5001650;28;20242;-59
2024/01/28 05:51:52;;;;;;;363.23;131.20;;;;;;;;;;4998303;28;20185;-59
2024/01/28 05:54:18;;;;;;;248.77;99.40;;;;;;;;;;5000938;28;20177;-59
2024/01/28 05:56:43;;;;;;;279.43;107.93;;;;;;;;;;5002842;28;20208;-58
2024/01/28 05:59:09;;;;;;;354.07;127.90;;;;;;;;;;4983575;28;20188;-59
2024/01/28 06:01:35;;;;;;;288.63;107.57;;;;;;;;;;5002367;28;20863;-59
2024/01/28 06:04:02;;;;;;;444.47;170.07;;;;;;;;;;4996546;28;20936;-59
2024/01/28 06:06:28;;;;;;;490.30;186.97;;;;;;;;;;4996768;28;20308;-58
2024/01/28 06:08:54;;;;;;;268.43;105.73;;;;;;;;;;5000150;28;20623;-59
2024/01/28 06:11:20;;;;;;;260.33;102.83;;;;;;;;;;5007187;28;20288;-59
2024/01/28 06:13:46;;;;;;;306.57;119.93;;;;;;;;;;5003163;28;20554;-58
2024/01/28 06:16:12;;;;;;;328.83;126.47;;;;;;;;;;4997108;28;20216;-59
2024/01/28 06:18:43;;;;;;;312.43;114.83;;;;;;;;;;5005235;28;20181;-59
2024/01/28 06:21:10;;;;;;;349.43;129.40;;;;;;;;;;4999739;28;20195;-58
2024/01/28 06:23:36;;;;;;;293.20;108.83;;;;;;;;;;5002197;28;20212;-59
2024/01/28 06:26:01;;;;;;;277.80;109.37;;;;;;;;;;5001624;28;20285;-61
2024/01/28 06:28:27;;;;;;;276.80;108.50;;;;;;;;;;5006120;28;20583;-58
2024/01/28 06:30:53;;;;;;;267.57;107.17;;;;;;;;;;5004477;28;20704;-60
2024/01/28 06:33:19;;;;;;;309.93;116.07;;;;;;;;;;5003651;28;20284;-59
2024/01/28 06:35:45;;;;;;;243.37;97.00;;;;;;;;;;4998178;28;20283;-61
2024/01/28 06:38:11;;;;;;;315.73;130.07;;;;;;;;;;4985421;28;20278;-60
2024/01/28 06:40:37;;;;;;;301.80;116.80;;;;;;;;;;4998766;28;20228;-60
2024/01/28 06:43:03;;;;;;;346.80;138.43;;;;;;;;;;5000812;28;20244;-59
2024/01/28 06:45:29;;;;;;;321.23;122.33;;;;;;;;;;4994941;28;20235;-59
2024/01/28 06:47:56;;;;;;;308.10;116.40;;;;;;;;;;4997176;28;20192;-60
2024/01/28 06:50:22;;;;;;;366.07;140.33;;;;;;;;;;4995643;28;20193;-59
2024/01/28 06:52:48;;;;;;;365.77;137.77;;;;;;;;;;5000087;28;20200;-60
2024/01/28 06:55:14;;;;;;;291.30;113.20;;;;;;;;;;4995350;28;20235;-60
2024/01/28 06:57:40;;;;;;;305.23;117.23;;;;;;;;;;4999033;28;20184;-61
2024/01/28 07:00:10;;;;;;;305.67;114.83;;;;;;;;;;4996420;28;20193;-59
2024/01/28 07:02:36;;;;;;;341.03;129.57;;;;;;;;;;5002527;28;20219;-61
2024/01/28 07:05:02;;;;;;;291.27;110.40;;;;;;;;;;5002358;28;20335;-59
2024/01/28 07:07:28;;;;;;;296.03;112.60;;;;;;;;;;5000490;28;20580;-60
2024/01/28 07:09:54;;;;;;;346.23;130.47;;;;;;;;;;4991440;28;20296;-59
2024/01/28 07:12:20;;;;;;;298.10;113.73;;;;;;;;;;5002904;28;20264;-59
2024/01/28 07:23:05;;;;;;;379.97;141.17;;;;;;;;;;5083251;27;20596;-58
2024/01/28 07:25:31;;;;;;;354.17;125.70;;;;;;;;;;5088080;28;20641;-59
2024/01/28 07:27:57;;;;;;;374.57;139.67;;;;;;;;;;5094186;28;20216;-58
2024/01/28 07:30:23;;;;;;;327.30;116.97;;;;;;;;;;5098283;28;20186;-59
2024/01/28 07:32:49;;;;;;;267.57;98.57;;;;;;;;;;5099609;28;20234;-60
2024/01/28 07:35:15;;;;;;;220.40;89.07;;;;;;;;;;5100933;28;20741;-60
2024/01/28 07:37:42;;;;;;;244.73;98.73;;;;;;;;;;5104702;28;20679;-59
2024/01/28 07:40:08;;;;;;;277.67;109.57;;;;;;;;;;5104870;28;20537;-60
2024/01/28 07:42:34;;;;;;;274.83;110.33;;;;;;;;;;5104746;28;20170;-59
2024/01/28 07:45:00;;;;;;;314.03;120.53;;;;;;;;;;5104911;28;20726;-59
2024/01/28 07:47:26;;;;;;;262.47;101.97;;;;;;;;;;5104703;28;20205;-59
2024/01/28 07:49:52;;;;;;;267.50;107.17;;;;;;;;;;5104337;28;20224;-59
2024/01/28 07:52:18;;;;;;;285.07;115.03;;;;;;;;;;5104314;28;20209;-59
2024/01/28 07:58:48;;;;;;;139.60;27.90;;;;;;;;;;5064366;28;20544;-59
2024/01/28 08:01:14;;;;;;;146.77;29.63;;;;;;;;;;5063883;28;20168;-60
2024/01/28 08:03:40;;;;;;;135.80;25.13;;;;;;;;;;5064338;28;20548;-60
2024/01/28 08:06:07;;;;;;;150.73;27.57;;;0.70;99.90;;;;;;5064400;28;20191;-61
2024/01/28 08:08:33;;;;;;;146.93;26.63;;;;;;;;;;5064271;28;20198;-60
2024/01/28 08:11:00;;;;;;;175.17;35.70;;;;;;;;;;5048444;28;20246;-61
2024/01/28 08:13:25;;;;;;;190.17;38.60;;;;;;;;;;5046801;28;20182;-62
2024/01/28 08:15:54;;;;;;;205.10;42.83;;;;;;;;;;5035776;28;20206;-62
2024/01/28 08:18:20;;;;;;;168.67;35.83;;;;;;;;;;5035386;28;20278;-61
2024/01/28 08:20:46;;;;;;;168.43;34.50;;;;;;;;;;5032901;28;20660;-62
2024/01/28 08:23:12;;;;;;;203.70;43.90;;;;;;;;;;5039042;28;20214;-62
2024/01/28 08:25:38;;;;;;;155.17;31.50;;;;;;;;;;5045830;28;20297;-62
2024/01/28 08:28:04;;;;;;;226.63;54.07;;;0.80;99.90;;;;;;5039323;28;20234;-61
2024/01/28 08:30:30;;;;;;;171.23;37.03;;;;;;;;;;5045984;28;20196;-62
2024/01/28 08:32:56;;;;;;;200.17;42.50;;;;;;;;;;5042326;28;20520;-61
2024/01/28 08:35:22;;;;;;;153.47;32.77;;;;;;;;;;5043431;28;20202;-61
2024/01/28 08:37:48;;;;;;;140.27;29.17;;;;;;;;;;5051169;28;20192;-60
2024/01/28 08:40:14;;;;;;;199.70;45.87;;;;;;;;;;5054951;28;20187;-60
2024/01/28 08:42:40;;;;;;;190.70;40.33;;;;;;;;;;5046738;28;20711;-61
2024/01/28 08:45:06;;;;;;;143.50;28.57;;;;;;;;;;5049297;28;20213;-61
2024/01/28 08:47:32;;;;;;;152.50;31.00;;;;;;;;;;5049092;28;20261;-61
2024/01/28 08:49:58;;;;;;;135.17;27.07;;;;;;;;;;5042581;28;20184;-61
2024/01/28 08:52:24;;;;;;;158.47;32.83;;;;;;;;;;5050165;28;20365;-61
2024/01/28 08:54:50;;;;;;;126.93;25.93;;;;;;;;;;5050399;28;20191;-61
2024/01/28 08:57:16;;;;;;;172.10;36.53;;;;;;;;;;5047831;28;20200;-61
2024/01/28 08:59:42;;;;;;;142.20;29.70;;;;;;;;;;5056349;28;20195;-60
2024/01/28 09:02:08;;;;;;;176.83;38.53;;;;;;;;;;5042936;28;20823;-60
2024/01/28 09:04:34;;;;;;;154.37;32.90;;;;;;;;;;5064820;28;20450;-60
2024/01/28 09:07:00;;;;;;;124.57;25.60;;;;;;;;;;5053855;28;20648;-59
2024/01/28 09:09:26;;;;;;;158.57;33.83;;;;;;;;;;5024761;28;20297;-60
2024/01/28 09:11:52;;;;;;;163.10;36.20;;;;;;;;;;5042102;28;20696;-60
2024/01/28 09:14:18;;;;;;;164.50;36.07;;;;;;;;;;5034633;28;20183;-60
2024/01/28 09:16:44;;;;;;;156.97;33.53;;;;;;;;;;5025158;28;20219;-61
2024/01/28 09:19:10;;;;;;;184.53;42.60;;;;;;;;;;5022675;28;20176;-60
2024/01/28 09:21:35;;;;;;;179.37;37.97;;;;;;;;;;5025396;28;20451;-60
2024/01/28 09:24:02;;;;;;;160.87;35.63;;;;;;;;;;5020416;28;20257;-60
2024/01/28 09:26:28;;;;;;;173.43;38.03;;;;;;;;;;5021127;28;20226;-60
2024/01/28 09:28:54;;;;;;;153.37;32.20;;;;;;;;;;5029590;28;20657;-60
2024/01/28 09:31:20;;;;;;;195.63;41.83;;;;;;;;;;5023070;28;20246;-61
2024/01/28 09:33:46;;;;;;;134.87;28.97;;;;;;;;;;5029087;28;20722;-60
2024/01/28 09:36:12;;;;;;;177.83;40.77;;;;;;;;;;5039065;28;20203;-60
2024/01/28 09:38:39;;;;;;;180.60;40.33;;;;;;;;;;5040919;28;20195;-60
2024/01/28 09:41:16;;;;;;;177.50;37.33;;;1.80;99.90;;;;;;5031473;28;20253;-60
2024/01/28 09:43:43;;;;;;;190.30;40.60;;;;;;;;;;5025536;28;20732;-60
2024/01/28 09:46:09;;;;;;;208.00;45.37;;;;;;;;;;5023065;28;20567;-60
2024/01/28 09:48:35;;;;;;;133.93;28.73;;;;;;;;;;5034095;28;20199;-60
2024/01/28 09:51:01;;;;;;;142.87;30.43;;;;;;;;;;5047382;28;20184;-60
2024/01/28 09:53:27;;;;;;;171.13;36.87;;;;;;;;;;5044638;28;20185;-60
2024/01/28 09:55:53;;;;;;;177.90;39.63;;;;;;;;;;5047862;28;20206;-61
2024/01/28 09:58:20;;;;;;;260.57;57.10;;;;;;;;;;5033649;28;20236;-61
2024/01/28 10:00:46;;;;;;;159.10;33.60;;;2.20;99.90;;;;;;5042860;28;20183;-61
2024/01/28 10:03:12;;;;;;;214.43;44.50;;;;;;;;;;5027389;28;20190;-61
2024/01/28 10:05:37;;;;;;;170.63;33.10;;;;;;;;;;5038212;28;20207;-61
2024/01/28 10:08:04;;;;;;;194.80;46.53;;;2.00;99.90;;;;;;5032372;28;20290;-60
2024/01/28 10:10:34;;;;;;;183.17;38.13;;;2.10;99.90;;;;;;5030189;28;20281;-61
2024/01/28 10:13:00;;;;;;;174.43;36.27;;;;;;;;;;5039610;28;20179;-60
2024/01/28 10:15:27;;;;;;;120.00;26.60;;;2.20;99.90;;;;;;5026077;28;20670;-61
2024/01/28 10:17:53;;;;;;;161.00;32.63;;;;;;;;;;5025713;28;20539;-60
2024/01/28 10:20:28;;;;;;;221.33;49.70;;;2.30;99.90;;;;;;5020980;28;20184;-60
2024/01/28 10:22:54;;;;;;;200.70;47.73;;;;;;;;;;5027689;28;20208;-60
2024/01/28 10:25:22;;;;;;;188.33;42.83;;;;;;;;;;5043286;28;20211;-60
2024/01/28 10:27:48;;;;;;;130.10;27.70;;;2.60;99.90;;;;;;5045253;28;20263;-60
2024/01/28 10:30:16;;;;;;;153.90;34.03;;;2.50;99.90;;;;;;5041887;28;20184;-60
2024/01/28 10:32:43;;;;;;;149.07;30.73;;;;;;;;;;5043698;28;20214;-60
2024/01/28 10:35:10;;;;;;;186.40;41.53;;;;;;;;;;5045609;28;20207;-60
2024/01/28 10:37:35;;;;;;;159.83;34.07;;;2.60;99.90;;;;;;5046176;28;20184;-60
2024/01/28 10:40:07;;;;;;;167.07;34.07;;;2.70;99.90;;;;;;5045165;28;20657;-59
2024/01/28 10:42:40;;;;;;;169.37;35.17;;;2.70;99.90;;;;;;5043435;28;20523;-60
2024/01/28 10:45:16;;;;;;;136.53;29.53;;;2.80;99.90;;;;;;5044543;28;20695;-59
2024/01/28 10:47:51;;;;;;;118.07;24.67;;;2.70;99.90;;;;;;5030839;28;20222;-60
2024/01/28 10:50:19;;;;;;;190.77;41.00;;;2.90;99.90;;;;;;5054465;28;20183;-60
2024/01/28 10:52:47;;;;;;;147.73;32.70;;;2.90;99.90;;;;;;5061054;28;20187;-60
2024/01/28 10:55:13;;;;;;;179.87;41.87;;;;;;;;;;5052524;28;20199;-60
2024/01/28 10:57:40;;;;;;;204.33;45.50;;;;;;;;;;5053802;28;20624;-60
2024/01/28 11:00:06;;;;;;;159.33;34.30;;;;;;;;;;5047512;28;20426;-60
2024/01/28 11:02:37;;;;;;;211.13;47.00;;;3.20;99.90;;;;;;5024951;28;20215;-60
2024/01/28 11:05:03;;;;;;;165.90;36.23;;;;;;;;;;5034475;28;20187;-60
2024/01/28 11:07:30;;;;;;;144.67;31.77;;;3.20;99.90;;;;;;5034232;28;20933;-60
2024/01/28 11:09:56;;;;;;;131.53;29.03;;;;;;;;;;5031491;28;20599;-60
2024/01/28 11:12:22;;;;;;;225.07;51.43;;;;;;;;;;5031105;28;20203;-60
2024/01/28 11:14:51;;;;;;;220.63;51.47;;;3.50;99.90;;;;;;5027784;28;20187;-60
2024/01/28 11:17:17;;;;;;;187.63;45.20;;;;;;;;;;5027322;28;20188;-59
2024/01/28 11:19:43;;;;;;;218.50;60.67;;;;;;;;;;5028685;28;20179;-60
2024/01/28 11:22:18;;;;;;;174.93;53.27;;;3.60;99.90;;;;;;5021170;28;20180;-60
2024/01/28 11:24:50;;;;;;;157.20;58.20;;;3.70;99.90;;;;;;5031178;28;20379;-60
2024/01/28 11:27:16;;;;;;;232.77;79.03;;;;;;;;;;5032147;28;20922;-60
2024/01/28 11:29:44;;;;;;;219.80;80.23;;;;;;;;;;5029582;28;20194;-60
2024/01/28 11:32:10;;;;;;;211.27;83.57;;;;;;;;;;5032531;28;20653;-60
2024/01/28 11:34:36;;;;;;;259.90;106.50;;;;;;;;;;5030246;28;20196;-60
2024/01/28 11:37:04;;;;;;;240.37;102.17;;;4.00;99.90;;;;;;5031797;28;20212;-60
2024/01/28 11:39:40;;;;;;;355.87;144.67;;;4.00;99.90;;;;;;5025811;28;20405;-60
2024/01/28 11:42:06;;;;;;;352.00;143.57;;;;;;;;;;5025050;28;20594;-60
2024/01/28 11:44:33;;;;;;;340.57;139.30;;;;;;;;;;5031219;28;20712;-60
2024/01/28 11:46:59;;;;;;;380.40;155.87;;;;;;;;;;5025403;28;20215;-60
2024/01/28 11:49:24;;;;;;;397.43;162.83;;;;;;;;;;5029669;28;20187;-60
2024/01/28 11:51:50;;;;;;;403.63;161.03;;;;;;;;;;5037968;28;20218;-60
2024/01/28 11:54:16;;;;;;;415.10;167.70;;;;;;;;;;5041686;28;20252;-60
2024/01/28 11:56:42;;;;;;;360.47;141.60;;;;;;;;;;5040776;28;20218;-60
2024/01/28 11:59:09;;;;;;;319.40;129.67;;;;;;;;;;5050171;28;20186;-60
2024/01/28 12:01:35;;;;;;;331.73;135.97;;;;;;;;;;5043563;28;20180;-60
2024/01/28 12:04:03;;;;;;;336.27;136.47;;;;;;;;;;5040417;28;20195;-59
2024/01/28 12:06:30;;;;;;;370.70;156.43;;;;;;;;;;5028230;28;20203;-60
2024/01/28 12:08:57;;;;;;;422.30;173.43;;;;;;;;;;5021512;28;20191;-60
2024/01/28 12:11:28;;;;;;;383.47;159.63;;;;;;;;;;5020756;28;20488;-60
2024/01/28 12:13:54;;;;;;;371.40;149.07;;;;;;;;;;5021524;28;20188;-59
2024/01/28 12:16:22;;;;;;;424.57;171.37;;;;;;;;;;5026187;28;20542;-60
2024/01/28 12:18:48;;;;;;;400.67;160.77;;;;;;;;;;5026937;28;20250;-60
2024/01/28 12:21:21;;;;;;;399.93;163.57;;;;;;;;;;5023071;28;20561;-60
2024/01/28 12:23:59;;;;;;;415.37;174.13;;;;;;;;;;5026724;28;20586;-60
2024/01/28 12:26:25;;;;;;;373.83;155.80;;;;;;;;;;5028409;28;20588;-59
2024/01/28 12:28:51;;;;;;;375.50;153.97;;;;;;;;;;5026004;28;20655;-60
2024/01/28 12:31:19;;;;;;;438.00;176.90;;;;;;;;;;5028773;28;20211;-62
2024/01/28 12:33:45;;;;;;;459.03;196.03;;;;;;;;;;5027756;28;20179;-60
2024/01/28 12:36:11;;;;;;;401.23;163.63;;;;;;;;;;5023882;28;20689;-60
2024/01/28 12:38:38;;;;;;;394.67;165.80;;;;;;;;;;5029197;28;20179;-60
2024/01/28 12:41:04;;;;;;;383.17;160.43;;;;;;;;;;5045280;28;20741;-60
2024/01/28 12:43:31;;;;;;;395.07;164.33;;;;;;;;;;5048527;28;21417;-60
2024/01/28 12:45:57;;;;;;;390.57;164.03;;;;;;;;;;5050754;28;20206;-60
2024/01/28 12:48:23;;;;;;;433.60;180.17;;;;;;;;;;5046565;28;20211;-60
2024/01/28 12:50:49;;;;;;;455.57;188.20;;;;;;;;;;5052214;28;20647;-60
2024/01/28 12:53:17;;;;;;;424.97;180.07;;;;;;;;;;5054814;28;21016;-61
2024/01/28 12:55:43;;;;;;;472.40;200.67;;;;;;;;;;5046346;28;20196;-61
2024/01/28 12:58:09;;;;;;;479.50;218.40;;;;;;;;;;5037255;28;20199;-60
2024/01/28 13:00:35;;;;;;;482.03;203.43;;;;;;;;;;5048350;28;20183;-61
2024/01/28 13:03:01;;;;;;;453.90;191.73;;;;;;;;;;5045851;28;20206;-61
2024/01/28 13:05:36;;;;;;;381.93;164.63;;;13.90;75.70;;;;;;5045601;28;20214;-61
2024/01/28 13:08:02;;;;;;;477.67;217.50;;;;;;;;;;5045643;28;20241;-61
2024/01/28 13:10:28;;;;;;;495.40;227.43;;;;;;;;;;5044421;28;20187;-60
2024/01/28 13:12:54;;;;;;;485.07;221.10;;;;;;;;;;5044613;28;20630;-61
2024/01/28 13:15:20;;;;;;;476.17;223.83;;;;;;;;;;5046738;28;20258;-60
2024/01/28 13:17:46;;;;;;;454.53;204.67;;;;;;;;;;5045972;28;20714;-61
2024/01/28 13:20:13;;;;;;;472.03;212.67;;;;;;;;;;5043149;28;20543;-60
2024/01/28 13:22:43;;;;;;;458.80;218.30;;;;;;;;;;5047603;28;20269;-60
2024/01/28 13:25:10;;;;;;;469.00;224.50;;;;;;;;;;5046661;28;20265;-60
2024/01/28 13:27:36;;;;;;;511.60;242.40;;;;;;;;;;5042141;28;20214;-61
